Time;durP1;ratioP1;P1;durP2;ratioP2;P2;SDS_P1;SDS_P2;PMS_P1;PMS_P2;Temp;Humidity;BMP_temperature;BMP_pressure;BME280_temperature;BME280_humidity;BME280_pressure;Samples;Min_cycle;Max_cycle;Signal;HPM_P1;HPM_P2
2022/12/06 00:01:15;;;;;;;10.30;8.17;;;;;;;5.87;93.76;98958.34;4968387;28;103185;-71
2022/12/06 00:03:44;;;;;;;11.47;8.70;;;;;;;6.00;93.69;98948.97;4987821;28;102642;-72
2022/12/06 00:06:16;;;;;;;11.83;9.13;;;;;;;6.04;92.98;98949.66;4977511;28;102811;-71
2022/12/06 00:08:47;;;;;;;13.03;10.07;;;;;;;5.93;92.12;98947.56;4960457;28;103721;-72
2022/12/06 00:11:17;;;;;;;12.00;8.43;;;;;;;6.01;92.63;98953.28;4964706;28;103180;-71
2022/12/06 00:13:46;;;;;;;11.03;9.93;;;;;;;6.04;92.40;98952.28;4968860;28;102668;-71
2022/12/06 00:16:16;;;;;;;17.17;9.87;;;;;;;5.75;92.41;98948.47;4977970;28;103109;-71
2022/12/06 00:18:46;;;;;;;12.77;9.87;;;;;;;5.61;93.54;98958.75;4963732;28;103283;-71
2022/12/06 00:21:19;;;;;;;8.87;7.30;;;;;;;5.68;94.27;98947.91;4965228;28;103220;-69
2022/12/06 00:23:50;;;;;;;13.03;10.47;;;;;;;5.34;94.50;98952.19;4968519;28;102677;-69
2022/12/06 00:26:19;;;;;;;12.37;9.70;;;;;;;5.44;94.48;98949.09;4984302;28;104229;-69
2022/12/06 00:28:47;;;;;;;8.90;7.07;;;;;;;5.71;94.47;98942.50;4947190;28;103361;-69
2022/12/06 00:31:18;;;;;;;9.57;7.00;;;;;;;5.85;93.76;98939.25;4965810;28;103158;-69
2022/12/06 00:33:47;;;;;;;9.33;7.03;;;;;;;5.91;92.80;98941.56;4966753;28;102618;-71
2022/12/06 00:36:17;;;;;;;7.80;6.33;;;;;;;5.97;92.73;98935.16;4957702;28;104237;-71
2022/12/06 00:38:45;;;;;;;10.73;7.50;;;;;;;5.98;92.44;98935.06;4955368;28;103255;-71
2022/12/06 00:41:17;;;;;;;11.93;8.67;;;;;;;5.88;91.67;98938.22;4958311;28;103475;-71
2022/12/06 00:43:45;;;;;;;13.07;9.60;;;;;;;5.88;92.17;98936.47;4958651;28;102977;-71
2022/12/06 00:46:16;;;;;;;9.87;7.60;;;;;;;5.85;92.16;98928.75;4968833;28;102615;-72
2022/12/06 00:48:44;;;;;;;10.17;7.70;;;;;;;5.77;92.31;98930.88;4978400;28;104067;-71
2022/12/06 00:51:12;;;;;;;12.30;9.40;;;;;;;5.77;91.73;98933.50;4960907;28;103172;-71
2022/12/06 00:53:41;;;;;;;11.50;10.00;;;;;;;5.47;91.63;98938.47;4963505;28;102723;-71
2022/12/06 00:56:09;;;;;;;10.87;9.63;;;;;;;5.07;93.25;98942.09;4959560;28;102731;-72
2022/12/06 00:58:39;;;;;;;13.63;8.50;;;;;;;5.16;94.14;98938.22;4966491;28;104058;-71
2022/12/06 01:01:10;;;;;;;9.83;8.27;;;;;;;5.02;94.07;98945.84;4961838;28;103042;-71
2022/12/06 01:03:38;;;;;;;8.43;7.53;;;;;;;5.19;93.99;98938.06;4970563;28;102697;-71
2022/12/06 01:06:08;;;;;;;9.47;8.13;;;;;;;4.94;94.44;98938.31;4941944;28;102787;-71
2022/12/06 01:08:36;;;;;;;9.00;7.73;;;;;;;4.83;94.79;98937.97;4962386;28;103302;-72
2022/12/06 01:11:05;;;;;;;9.63;7.77;;;;;;;5.05;94.50;98940.47;4963065;28;103209;-71
2022/12/06 01:13:35;;;;;;;9.13;7.60;;;;;;;5.19;93.61;98938.88;4961965;28;103022;-71
2022/12/06 01:16:09;;;;;;;6.93;6.17;;;;;;;5.32;93.49;98940.94;4965427;28;102830;-71
2022/12/06 01:18:38;;;;;;;8.90;7.40;;;;;;;5.28;92.20;98931.53;4957622;28;104196;-71
2022/12/06 01:21:07;;;;;;;8.33;7.33;;;;;;;5.31;92.55;98944.47;4956416;28;103353;-71
2022/12/06 01:23:35;;;;;;;11.03;8.67;;;;;;;5.05;91.73;98936.06;4962586;28;102636;-72
2022/12/06 01:26:16;;;;;;;9.60;8.13;;;;;;;5.02;93.66;98941.47;4954222;28;102633;-72
2022/12/06 01:28:44;;;;;;;13.50;8.33;;;;;;;5.12;93.19;98939.25;4958907;28;103363;-71
2022/12/06 01:31:14;;;;;;;9.73;8.07;;;;;;;5.17;92.76;98938.13;4958335;28;103181;-72
2022/12/06 01:33:43;;;;;;;9.53;7.17;;;;;;;5.19;92.45;98935.44;4961643;28;104555;-71
2022/12/06 01:36:16;;;;;;;11.27;8.77;;;;;;;5.19;92.95;98936.28;4958060;28;103949;-71
2022/12/06 01:38:44;;;;;;;9.57;7.00;;;;;;;5.33;93.00;98932.16;4966758;28;103247;-71
2022/12/06 01:41:12;;;;;;;10.90;8.93;;;;;;;5.39;92.42;98929.25;4966477;28;103394;-71
2022/12/06 01:43:42;;;;;;;10.00;7.70;;;;;;;5.46;92.81;98922.78;4972008;28;102734;-71
2022/12/06 01:46:21;;;;;;;8.60;6.70;;;;;;;5.50;92.49;98934.84;4951768;28;103916;-72
2022/12/06 01:48:54;;;;;;;10.03;8.30;;;;;;;5.54;92.33;98925.88;4979682;28;104290;-71
2022/12/06 01:51:22;;;;;;;10.63;8.13;;;;;;;5.55;92.00;98925.84;4985058;28;103420;-71
2022/12/06 01:53:52;;;;;;;10.30;9.07;;;;;;;5.09;92.81;98916.69;4978987;28;102909;-72
2022/12/06 01:56:21;;;;;;;13.70;10.67;;;;;;;5.08;94.73;98925.44;4967235;28;102670;-71
2022/12/06 01:58:54;;;;;;;10.07;8.47;;;;;;;5.31;94.58;98923.50;4963881;28;104192;-71
2022/12/06 02:01:28;;;;;;;10.47;8.93;;;;;;;5.42;93.78;98926.50;4963336;28;103311;-71
2022/12/06 02:03:58;;;;;;;14.63;10.67;;;;;;;5.31;93.76;98923.50;4960775;28;102807;-71
2022/12/06 02:06:27;;;;;;;14.17;10.03;;;;;;;5.34;94.07;98921.59;4981998;28;102783;-71
2022/12/06 02:08:56;;;;;;;15.07;10.90;;;;;;;5.21;93.97;98923.97;4959925;28;104538;-71
2022/12/06 02:11:24;;;;;;;13.13;10.57;;;;;;;5.30;94.74;98920.06;4943695;28;103253;-72
2022/12/06 02:14:01;;;;;;;10.30;8.97;;;;;;;5.49;94.77;98912.16;4955396;28;102583;-71
2022/12/06 02:17:02;;;;;;;10.27;8.13;;;;;;;5.59;94.78;98916.88;4965759;28;103503;-71
2022/12/06 02:19:52;;;;;;;9.67;7.60;;;;;;;5.65;93.77;98910.50;4946513;28;103388;-71
2022/12/06 02:22:27;;;;;;;15.87;11.63;;;;;;;5.53;92.50;98918.97;4961327;28;104390;-71
2022/12/06 02:25:05;;;;;;;12.10;9.17;;;;;;;5.55;92.94;98909.25;4979545;28;102934;-71
2022/12/06 02:28:18;;;;;;;14.73;11.40;;;;;;;5.48;92.45;98915.69;4972284;28;104054;-72
2022/12/06 02:30:55;;;;;;;12.23;9.13;;;;;;;5.51;93.29;98912.94;4929005;28;103970;-71
2022/12/06 02:33:27;;;;;;;10.87;9.17;;;;;;;5.56;93.19;98910.94;4959571;28;103294;-72
2022/12/06 02:36:00;;;;;;;13.73;10.70;;;;;;;5.54;92.57;98904.94;4976144;28;102645;-71
2022/12/06 02:38:34;;;;;;;13.77;11.73;;;;;;;5.17;93.41;98898.84;4967359;28;102688;-72
2022/12/06 02:41:08;;;;;;;15.43;11.17;;;;;;;4.83;95.98;98903.94;4963893;28;103279;-71
2022/12/06 02:43:40;;;;;;;11.57;9.03;;;;;;;5.14;95.50;98898.97;4967867;28;103260;-72
2022/12/06 02:46:12;;;;;;;12.00;10.37;;;;;;;5.28;95.84;98906.19;4967653;28;102734;-72
2022/12/06 02:48:42;;;;;;;15.10;11.00;;;;;;;5.24;95.08;98900.25;4959631;28;102962;-72
2022/12/06 02:51:14;;;;;;;11.20;8.77;;;;;;;5.39;94.86;98893.41;4964440;28;104749;-71
2022/12/06 02:53:46;;;;;;;12.60;9.60;;;;;;;5.50;94.93;98893.72;4963024;28;105033;-72
2022/12/06 02:56:16;;;;;;;10.47;8.83;;;;;;;5.55;94.87;98893.53;4972850;28;102641;-72
2022/12/06 02:58:44;;;;;;;14.70;11.17;;;;;;;5.57;94.09;98897.78;4959777;28;103945;-71
2022/12/06 03:01:16;;;;;;;12.60;9.67;;;;;;;5.53;93.90;98896.22;4950373;28;103204;-72
2022/12/06 03:04:07;;;;;;;15.23;10.83;;;;;;;5.50;94.09;98898.16;4979538;28;104185;-71
2022/12/06 03:07:06;;;;;;;12.70;10.50;;;;;;;5.57;94.28;98904.78;4959402;28;102645;-71
2022/12/06 03:09:48;;;;;;;15.83;11.67;;;;;;;5.10;94.62;98897.44;4959906;28;102676;-72
2022/12/06 03:12:28;;;;;;;14.30;10.97;;;;;;;5.04;96.75;98902.97;4960281;28;103307;-71
2022/12/06 03:15:08;;;;;;;12.87;11.23;;;;;;;5.31;96.51;98894.69;4978681;28;103175;-72
2022/12/06 03:17:42;;;;;;;11.03;8.40;;;;;;;5.49;96.15;98889.44;4958526;28;102721;-71
2022/12/06 03:20:15;;;;;;;12.17;8.93;;;;;;;5.51;95.34;98891.97;4960474;28;102611;-71
2022/12/06 03:22:49;;;;;;;10.50;8.47;;;;;;;5.50;94.68;98882.44;4968784;28;103314;-72
2022/12/06 03:25:17;;;;;;;14.33;10.47;;;;;;;5.42;94.90;98884.56;4961413;28;103300;-71
2022/12/06 03:27:48;;;;;;;14.53;10.40;;;;;;;5.52;95.03;98885.81;4959696;28;102779;-72
2022/12/06 03:30:16;;;;;;;12.50;9.77;;;;;;;5.58;94.60;98877.66;4970023;28;102670;-72
2022/12/06 03:32:48;;;;;;;11.40;8.73;;;;;;;5.64;94.52;98878.19;4963038;28;102957;-72
2022/12/06 03:35:21;;;;;;;12.40;10.30;;;;;;;5.59;93.96;98874.09;4939399;28;104512;-72
2022/12/06 03:37:55;;;;;;;15.40;11.00;;;;;;;5.51;93.82;98873.63;4962320;28;102682;-71
2022/12/06 03:40:28;;;;;;;12.60;9.50;;;;;;;5.53;94.23;98871.78;4958637;28;103846;-71
2022/12/06 03:42:57;;;;;;;13.70;10.93;;;;;;;5.52;93.91;98868.31;4963467;28;104126;-72
2022/12/06 03:45:33;;;;;;;11.83;9.20;;;;;;;5.48;94.91;98876.38;4972404;28;103029;-72
2022/12/06 03:48:08;;;;;;;11.50;8.47;;;;;;;5.46;94.95;98870.38;4966039;28;102816;-71
2022/12/06 03:50:40;;;;;;;11.83;8.90;;;;;;;5.61;95.05;98870.50;4947804;28;103808;-72
2022/12/06 03:53:08;;;;;;;13.80;10.67;;;;;;;5.61;94.79;98873.13;4952027;28;103866;-71
2022/12/06 03:55:36;;;;;;;12.80;10.23;;;;;;;5.61;94.53;98875.75;4972347;28;103264;-71
2022/12/06 03:58:04;;;;;;;14.37;10.50;;;;;;;5.70;94.49;98870.00;4965164;28;102583;-71
2022/12/06 04:00:32;;;;;;;12.13;9.50;;;;;;;5.67;93.67;98864.94;4949498;28;103473;-71
2022/12/06 04:02:59;;;;;;;9.93;7.47;;;;;;;5.72;93.55;98869.97;4982715;28;103995;-71
2022/12/06 04:05:29;;;;;;;10.27;8.23;;;;;;;5.78;93.77;98860.00;4966700;28;103331;-71
2022/12/06 04:07:57;;;;;;;8.03;6.73;;;;;;;5.83;93.57;98862.41;4960314;28;102699;-73
2022/12/06 04:10:27;;;;;;;9.40;7.33;;;;;;;5.87;93.20;98863.13;4955023;28;103940;-72
2022/12/06 04:13:01;;;;;;;11.83;8.27;;;;;;;5.80;92.27;98857.31;4958277;28;103214;-71
2022/12/06 04:15:32;;;;;;;13.83;10.87;;;;;;;5.73;91.14;98859.38;4961569;28;103065;-71
2022/12/06 04:18:12;;;;;;;12.37;9.20;;;;;;;5.53;93.20;98853.44;4970561;28;102486;-71
2022/12/06 04:23:32;;;;;;;12.87;9.97;;;;;;;5.67;92.47;98854.44;4956323;28;103882;-71
2022/12/06 04:26:00;;;;;;;12.33;10.90;;;;;;;5.52;92.71;98843.88;4968260;28;103276;-71
2022/12/06 04:39:31;;;;;;;11.87;9.03;;;;;;;5.51;94.72;98839.56;4951330;28;102642;-71
2022/12/06 04:44:44;;;;;;;12.10;10.60;;;;;;;5.56;93.86;98838.41;4949706;28;103455;-72
2022/12/06 04:47:15;;;;;;;12.40;9.93;;;;;;;5.33;94.44;98830.84;4967641;28;103204;-72
2022/12/06 04:49:43;;;;;;;12.17;9.87;;;;;;;5.44;94.51;98831.16;4965408;28;102772;-71
2022/12/06 04:52:13;;;;;;;14.33;10.87;;;;;;;5.37;94.56;98834.16;4956517;28;104464;-70
2022/12/06 04:54:41;;;;;;;14.03;10.87;;;;;;;5.26;94.31;98832.06;4964196;28;103650;-71
2022/12/06 04:57:13;;;;;;;12.67;9.53;;;;;;;5.29;94.81;98829.28;4965827;28;103193;-72
2022/12/06 04:59:42;;;;;;;15.90;9.67;;;;;;;5.42;94.72;98824.31;4953362;28;102628;-72
2022/12/06 05:02:13;;;;;;;13.27;10.37;;;;;;;5.34;94.91;98823.81;4948936;28;104238;-71
2022/12/06 05:04:42;;;;;;;13.77;10.23;;;;;;;5.44;95.21;98832.94;4969058;28;103278;-72
2022/12/06 05:07:10;;;;;;;14.50;11.57;;;;;;;5.39;94.43;98821.84;4968334;28;103242;-71
2022/12/06 05:09:41;;;;;;;8.77;7.83;;;;;;;5.51;94.89;98823.84;4957847;28;102621;-71
2022/12/06 05:12:09;;;;;;;12.97;9.50;;;;;;;5.60;94.73;98824.22;4953998;28;102636;-71
2022/12/06 05:14:37;;;;;;;11.93;8.27;;;;;;;5.65;94.34;98821.38;4964271;28;104340;-71
2022/12/06 05:17:05;;;;;;;14.50;11.43;;;;;;;5.54;93.64;98828.91;4964177;28;103237;-71
2022/12/06 05:19:33;;;;;;;14.00;10.43;;;;;;;5.51;94.16;98831.69;4967043;28;102744;-72
2022/12/06 05:22:01;;;;;;;11.97;9.23;;;;;;;5.49;94.13;98841.41;4955404;28;103825;-72
2022/12/06 05:24:29;;;;;;;11.47;8.13;;;;;;;5.58;94.29;98833.09;4956579;28;103354;-72
2022/12/06 05:26:58;;;;;;;16.20;12.00;;;;;;;5.18;94.82;98829.81;4989873;28;103142;-72
2022/12/06 05:29:25;;;;;;;15.50;10.80;;;;;;;5.11;96.10;98825.78;4975318;28;102583;-72
2022/12/06 05:31:53;;;;;;;14.90;10.43;;;;;;;5.11;96.77;98828.41;4967105;28;102715;-71
2022/12/06 05:34:21;;;;;;;17.40;11.97;;;;;;;5.28;96.55;98827.59;4966742;28;103423;-71
2022/12/06 05:36:49;;;;;;;15.33;11.50;;;;;;;5.23;96.29;98819.97;4963274;28;105294;-71
2022/12/06 05:39:17;;;;;;;12.77;9.40;;;;;;;5.34;96.36;98819.44;4973795;28;102694;-72
2022/12/06 05:41:45;;;;;;;13.47;10.67;;;;;;;5.39;95.60;98827.09;4965732;28;102553;-71
2022/12/06 05:44:14;;;;;;;13.70;10.33;;;;;;;5.48;95.65;98823.97;4947542;28;104216;-71
2022/12/06 05:46:42;;;;;;;13.70;10.43;;;;;;;5.48;95.11;98826.59;4968266;28;103225;-72
2022/12/06 05:49:09;;;;;;;14.63;10.77;;;;;;;5.52;95.33;98822.91;4962227;28;102649;-71
2022/12/06 05:51:38;;;;;;;13.50;10.60;;;;;;;5.51;94.95;98829.06;4978714;28;104147;-69
2022/12/06 05:54:06;;;;;;;16.17;12.23;;;;;;;5.33;94.46;98815.13;4961300;28;102849;-71
2022/12/06 05:56:34;;;;;;;13.83;10.23;;;;;;;5.36;95.22;98820.19;4987412;28;103306;-71
2022/12/06 05:59:04;;;;;;;13.00;10.30;;;;;;;5.40;94.66;98821.75;4960459;28;104152;-72
2022/12/06 06:01:33;;;;;;;14.23;11.07;;;;;;;5.33;94.63;98822.13;4962776;28;102799;-71
2022/12/06 06:04:01;;;;;;;13.67;10.63;;;;;;;5.13;95.96;98829.19;4960934;28;103285;-71
2022/12/06 06:06:29;;;;;;;13.97;11.77;;;;;;;5.13;96.24;98831.81;4957702;28;103434;-70
2022/12/06 06:08:57;;;;;;;16.27;11.50;;;;;;;5.05;96.87;98836.56;4963504;28;102813;-70
2022/12/06 06:11:25;;;;;;;12.43;9.73;;;;;;;5.35;96.73;98833.38;4959849;28;102925;-70
2022/12/06 06:13:53;;;;;;;14.90;10.20;;;;;;;5.39;95.52;98840.19;4959872;28;104172;-70
2022/12/06 06:16:23;;;;;;;15.33;12.53;;;;;;;5.17;95.12;98827.25;4957378;28;103127;-70
2022/12/06 06:18:53;;;;;;;14.73;11.23;;;;;;;5.01;96.80;98827.16;4964535;28;102729;-70
2022/12/06 06:21:21;;;;;;;14.63;11.87;;;;;;;5.22;96.48;98827.91;4952783;28;102942;-69
2022/12/06 06:23:49;;;;;;;13.10;11.37;;;;;;;5.28;95.63;98831.06;4962702;28;104497;-71
2022/12/06 06:26:16;;;;;;;15.77;11.43;;;;;;;5.17;96.41;98828.13;4954517;28;103366;-71
2022/12/06 06:28:44;;;;;;;16.03;11.53;;;;;;;5.33;96.26;98827.38;4958317;28;103726;-72
2022/12/06 06:31:12;;;;;;;11.27;9.20;;;;;;;5.52;96.43;98822.91;4963760;28;103716;-70
2022/12/06 06:33:40;;;;;;;11.43;8.80;;;;;;;5.61;95.83;98825.09;4959676;28;103774;-71
2022/12/06 06:36:10;;;;;;;12.70;8.93;;;;;;;5.65;96.01;98816.13;4960318;28;103221;-71
2022/12/06 06:38:38;;;;;;;8.70;7.47;;;;;;;5.72;95.49;98820.16;4945740;28;102723;-72
2022/12/06 06:41:06;;;;;;;14.50;11.30;;;;;;;5.71;94.38;98816.66;4951590;28;103776;-71
2022/12/06 06:43:34;;;;;;;15.23;10.73;;;;;;;5.65;94.33;98813.50;4978206;28;104035;-71
2022/12/06 06:46:05;;;;;;;15.30;12.07;;;;;;;5.53;93.17;98816.75;4971082;28;104236;-68
2022/12/06 06:48:36;;;;;;;13.97;9.57;;;;;;;5.61;94.84;98825.09;4966980;28;103009;-70
2022/12/06 06:51:04;;;;;;;13.83;10.47;;;;;;;5.62;94.24;98832.00;4963147;28;103700;-70
2022/12/06 06:53:34;;;;;;;14.93;11.33;;;;;;;5.66;94.02;98828.31;4974292;28;104197;-70
2022/12/06 06:56:02;;;;;;;12.43;9.60;;;;;;;5.54;94.09;98834.16;4951522;28;103605;-70
2022/12/06 06:58:30;;;;;;;20.50;14.10;;;;;;;5.28;94.84;98833.69;4949915;28;102793;-70
2022/12/06 07:00:59;;;;;;;15.67;13.43;;;;;;;5.24;95.63;98832.16;4977576;28;104248;-70
2022/12/06 07:03:28;;;;;;;15.63;12.90;;;;;;;5.31;96.25;98830.06;4950645;28;103507;-70
2022/12/06 07:05:58;;;;;;;12.53;9.63;;;;;;;5.57;96.04;98824.38;4951473;28;103199;-70
2022/12/06 07:08:27;;;;;;;11.07;9.00;;;;;;;5.71;95.58;98828.94;4946763;28;102846;-70
2022/12/06 07:10:57;;;;;;;13.67;10.07;;;;;;;5.68;94.68;98834.31;4958039;28;104146;-70
2022/12/06 07:13:27;;;;;;;10.37;8.87;;;;;;;5.79;94.66;98829.38;4947105;28;104245;-70
2022/12/06 07:15:55;;;;;;;13.03;10.00;;;;;;;5.84;94.35;98827.38;4949443;28;103039;-70
2022/12/06 07:18:23;;;;;;;9.87;7.77;;;;;;;5.87;94.14;98835.13;4952233;28;102718;-70
2022/12/06 07:20:59;;;;;;;8.93;7.47;;;;;;;5.96;93.98;98825.94;4960107;28;103869;-70
2022/12/06 07:23:27;;;;;;;16.07;11.13;;;;;;;5.80;92.65;98833.72;4950549;28;102983;-70
2022/12/06 07:26:05;;;;;;;10.27;7.83;;;;;;;5.86;93.31;98819.47;4948192;28;104194;-70
2022/12/06 07:28:35;;;;;;;12.33;9.83;;;;;;;5.89;93.24;98828.03;4949209;28;102729;-70
2022/12/06 07:31:08;;;;;;;10.30;8.90;;;;;;;5.89;93.16;98835.06;4958711;28;103498;-69
2022/12/06 07:33:36;;;;;;;12.33;9.60;;;;;;;5.99;93.49;98826.63;4951193;28;104458;-70
2022/12/06 07:36:05;;;;;;;10.17;8.10;;;;;;;5.95;93.19;98829.50;4953302;28;103288;-70
2022/12/06 07:38:42;;;;;;;13.33;10.47;;;;;;;6.03;93.40;98830.78;4952158;28;103074;-70
2022/12/06 07:47:03;;;;;;;19.60;14.20;;;;;;;5.88;92.55;98828.94;4961460;28;103187;-70
2022/12/06 07:49:31;;;;;;;14.90;11.80;;;;;;;6.00;93.33;98833.56;4943142;28;103125;-70
2022/12/06 07:51:59;;;;;;;14.63;9.93;;;;;;;5.99;93.17;98831.88;4961403;28;103827;-70
2022/12/06 07:54:27;;;;;;;16.03;12.33;;;;;;;5.63;93.74;98833.72;4964417;28;104569;-69
2022/12/06 07:56:56;;;;;;;14.33;11.40;;;;;;;5.60;95.11;98839.09;4961335;28;103290;-70
2022/12/06 07:59:25;;;;;;;15.47;11.20;;;;;;;5.26;96.68;98829.44;4973697;28;102651;-70
2022/12/06 08:01:53;;;;;;;14.23;11.53;;;;;;;5.12;98.34;98832.72;4949641;28;103847;-70
2022/12/06 08:04:21;;;;;;;13.23;10.90;;;;;;;5.23;98.37;98833.06;4957110;28;103182;-69
2022/12/06 08:06:49;;;;;;;12.57;10.13;;;;;;;5.34;97.51;98835.16;4957061;28;103180;-70
2022/12/06 08:09:17;;;;;;;12.47;9.90;;;;;;;5.47;96.62;98840.66;4953208;28;103329;-69
2022/12/06 08:11:45;;;;;;;15.53;11.83;;;;;;;5.39;96.25;98834.94;4968647;28;104603;-70
2022/12/06 08:14:14;;;;;;;13.00;10.47;;;;;;;5.59;96.40;98837.41;4965950;28;104219;-70
2022/12/06 08:16:42;;;;;;;13.40;9.40;;;;;;;5.75;95.89;98843.59;4958806;28;102747;-70
2022/12/06 08:19:10;;;;;;;14.67;11.40;;;;;;;5.57;95.10;98839.25;4953333;28;102749;-70
2022/12/06 08:21:38;;;;;;;17.80;12.77;;;;;;;5.69;95.10;98834.25;4960335;28;103744;-70
2022/12/06 08:24:09;;;;;;;13.97;11.90;;;;;;;5.55;95.46;98836.72;4948283;28;104101;-70
2022/12/06 08:26:37;;;;;;;11.47;10.27;;;;;;;5.76;95.39;98834.78;4961933;28;103811;-70
2022/12/06 08:29:05;;;;;;;10.73;8.57;;;;;;;5.88;95.09;98823.72;4965131;28;102692;-69
2022/12/06 08:31:34;;;;;;;11.27;8.13;;;;;;;6.03;95.11;98833.41;4955288;28;104034;-70
2022/12/06 08:34:03;;;;;;;8.67;7.30;;;;;;;6.14;94.79;98831.09;4951268;28;103767;-70
2022/12/06 08:36:31;;;;;;;8.40;7.50;;;;;;;6.14;93.50;98831.09;4953638;28;103219;-70
2022/12/06 08:39:00;;;;;;;6.70;5.73;;;;;;;6.05;92.59;98831.56;4958938;28;102710;-70
2022/12/06 08:44:15;;;;;;;7.43;6.27;;;;;;;6.17;91.58;98830.94;4962915;28;103669;-70
2022/12/06 08:46:45;;;;;;;6.30;5.27;;;;;;;6.21;90.48;98832.44;4954600;28;103255;-70
2022/12/06 08:49:14;;;;;;;8.17;5.70;;;;;;;6.22;89.58;98843.78;4952549;28;104596;-70
2022/12/06 08:51:43;;;;;;;6.10;5.27;;;;;;;6.24;88.53;98837.53;4955183;28;103180;-70
2022/12/06 08:54:15;;;;;;;6.67;5.90;;;;;;;6.27;88.95;98837.38;4945511;28;103166;-70
2022/12/06 08:56:43;;;;;;;6.30;5.50;;;;;;;6.32;89.12;98843.22;4949631;28;103299;-70
2022/12/06 08:59:11;;;;;;;5.47;4.97;;;;;;;6.37;89.05;98838.56;4982774;28;102558;-70
2022/12/06 09:01:39;;;;;;;8.53;5.30;;;;;;;6.31;88.10;98844.16;4949496;28;102647;-70
2022/12/06 09:04:12;;;;;;;8.67;7.20;;;;;;;6.11;88.90;98846.97;4965584;28;103294;-70
2022/12/06 09:06:42;;;;;;;7.53;6.73;;;;;;;6.10;89.61;98840.03;4951595;28;103295;-70
2022/12/06 09:09:12;;;;;;;7.83;6.47;;;;;;;6.18;89.27;98848.34;4963602;28;102745;-70
2022/12/06 09:11:41;;;;;;;6.40;5.63;;;;;;;6.37;89.85;98845.63;4965188;28;102738;-70
2022/12/06 09:14:12;;;;;;;7.17;5.50;;;;;;;6.48;89.61;98845.03;4960803;28;104207;-70
2022/12/06 09:16:48;;;;;;;6.63;5.43;;;;;;;6.52;89.72;98846.56;4958276;28;103302;-70
2022/12/06 09:19:18;;;;;;;6.60;6.00;;;;;;;6.52;89.13;98846.56;4967008;28;102717;-70
2022/12/06 09:21:46;;;;;;;7.20;6.50;;;;;;;6.37;89.23;98858.75;4960435;28;104208;-69
2022/12/06 09:24:16;;;;;;;8.57;6.60;;;;;;;6.39;89.28;98852.47;4967351;28;104380;-69
2022/12/06 09:26:44;;;;;;;8.77;6.77;;;;;;;6.51;89.71;98847.50;4957125;28;103314;-73
2022/12/06 09:29:13;;;;;;;8.50;7.00;;;;;;;6.56;89.14;98853.34;4959825;28;103093;-71
2022/12/06 09:31:41;;;;;;;18.30;14.07;;;;;;;6.58;88.32;98841.84;4977363;28;103236;-75
2022/12/06 09:34:10;;;;;;;13.43;10.17;;;;;;;6.56;88.15;98845.47;4966296;28;103584;-74
2022/12/06 09:36:43;;;;;;;9.90;7.90;;;;;;;6.49;88.91;98851.97;4962087;28;103073;-74
2022/12/06 09:39:15;;;;;;;9.43;8.30;;;;;;;6.56;87.81;98848.09;4954938;28;102792;-78
2022/12/06 09:42:09;;;;;;;11.47;8.23;;;;;;;6.41;88.32;98853.25;4975180;28;103704;-76
2022/12/06 09:45:01;;;;;;;12.13;9.37;;;;;;;6.41;88.31;98850.63;4965316;28;103260;-73
2022/12/06 09:47:46;;;;;;;12.33;9.40;;;;;;;6.29;88.53;98843.38;4959442;28;103199;-77
2022/12/06 09:50:25;;;;;;;10.43;8.57;;;;;;;6.47;88.37;98845.97;4970437;28;102762;-77
2022/12/06 09:53:14;;;;;;;9.60;7.13;;;;;;;6.57;88.89;98840.13;4944990;28;102711;-71
2022/12/06 09:55:59;;;;;;;10.47;8.73;;;;;;;6.39;87.97;98852.47;4976007;28;104021;-77
2022/12/06 09:58:44;;;;;;;11.63;9.03;;;;;;;6.56;87.71;98854.19;4968293;28;103232;-78
2022/12/06 10:01:24;;;;;;;12.80;10.43;;;;;;;6.32;87.99;98852.88;4963514;28;102971;-76
2022/12/06 10:04:06;;;;;;;13.33;10.17;;;;;;;5.98;89.45;98851.16;4962416;28;102857;-76
2022/12/06 10:06:40;;;;;;;12.10;9.50;;;;;;;6.06;89.19;98856.88;4953292;28;104199;-76
2022/12/06 10:09:24;;;;;;;10.40;9.00;;;;;;;6.16;88.90;98839.72;4967043;28;103284;-80
2022/12/06 10:12:09;;;;;;;13.07;10.27;;;;;;;6.06;87.81;98842.91;4963115;28;102659;-79
2022/12/06 10:14:54;;;;;;;9.57;7.63;;;;;;;6.25;88.45;98843.63;4938987;28;104071;-78
2022/12/06 10:17:33;;;;;;;18.60;10.50;;;;;;;6.10;88.10;98845.28;4957803;28;103986;-78
2022/12/06 10:20:14;;;;;;;12.10;9.93;;;;;;;6.10;88.38;98840.03;4960835;28;104284;-77
2022/12/06 10:22:58;;;;;;;13.57;10.77;;;;;;;5.91;89.29;98843.69;4966636;28;102555;-77
2022/12/06 10:25:38;;;;;;;11.97;9.63;;;;;;;5.95;89.11;98850.47;4953040;28;102661;-80
2022/12/06 10:28:12;;;;;;;11.83;10.17;;;;;;;5.76;89.79;98840.03;4964357;28;103953;-72
2022/12/06 10:30:47;;;;;;;11.17;9.73;;;;;;;5.88;89.97;98844.69;4947961;28;103313;-72
2022/12/06 10:33:30;;;;;;;11.73;9.07;;;;;;;6.05;89.48;98836.81;4958674;28;102720;-72
2022/12/06 10:36:01;;;;;;;11.10;8.40;;;;;;;6.15;89.35;98830.13;4959878;28;102961;-72
2022/12/06 10:38:37;;;;;;;9.30;7.63;;;;;;;6.29;88.79;98840.75;4959806;28;103301;-72
2022/12/06 10:41:14;;;;;;;8.17;7.17;;;;;;;6.45;88.26;98834.69;4981690;28;104137;-72
2022/12/06 10:43:50;;;;;;;8.97;7.47;;;;;;;6.41;87.62;98824.38;4965397;28;102800;-72
2022/12/06 10:49:22;;;;;;;7.70;6.73;;;;;;;5.91;88.88;98826.19;4946487;28;103199;-72
2022/12/06 10:51:57;;;;;;;8.60;6.67;;;;;;;6.14;89.24;98820.59;4974894;28;103052;-72
2022/12/06 10:54:30;;;;;;;8.37;7.27;;;;;;;6.20;88.93;98817.63;4944855;28;102733;-72
2022/12/06 10:57:05;;;;;;;6.93;6.07;;;;;;;6.15;89.81;98822.25;4974974;28;104207;-72
2022/12/06 10:59:37;;;;;;;8.53;6.63;;;;;;;6.28;89.19;98819.84;4973681;28;104166;-72
2022/12/06 11:02:20;;;;;;;8.00;7.00;;;;;;;6.08;90.94;98814.81;4984262;28;104407;-72
2022/12/06 11:04:49;;;;;;;8.20;6.30;;;;;;;5.96;91.08;98813.66;4968993;28;102572;-73
2022/12/06 11:07:23;;;;;;;6.40;5.63;;;;;;;6.24;90.74;98813.91;4958472;28;103814;-73
2022/12/06 11:09:53;;;;;;;7.30;5.57;;;;;;;6.16;90.23;98813.47;4984866;28;104186;-71
2022/12/06 11:12:27;;;;;;;7.33;6.30;;;;;;;6.05;89.90;98812.34;4948159;28;103320;-70
2022/12/06 11:15:04;;;;;;;5.97;4.80;;;;;;;6.12;90.63;98809.31;4963447;28;102701;-70
2022/12/06 11:17:36;;;;;;;9.37;6.80;;;;;;;5.82;90.73;98809.09;4953537;28;103619;-70
2022/12/06 11:20:15;;;;;;;6.20;5.20;;;;;;;6.03;90.85;98809.81;4987232;28;104286;-71
2022/12/06 11:22:52;;;;;;;6.73;5.57;;;;;;;6.02;90.57;98812.50;4970947;28;103222;-70
2022/12/06 11:25:28;;;;;;;7.77;5.70;;;;;;;5.97;91.22;98811.91;4984061;28;102833;-72
2022/12/06 11:28:05;;;;;;;8.63;6.03;;;;;;;6.11;90.31;98809.41;4976725;28;102579;-69
2022/12/06 11:30:35;;;;;;;9.43;6.40;;;;;;;6.09;91.15;98808.66;4972243;28;103184;-69
2022/12/06 11:33:04;;;;;;;8.03;6.20;;;;;;;6.01;90.91;98809.03;4986895;28;102727;-70
2022/12/06 11:35:32;;;;;;;6.33;5.33;;;;;;;6.11;91.04;98820.75;4959288;28;102731;-69
2022/12/06 11:38:04;;;;;;;7.83;6.57;;;;;;;6.02;91.36;98815.13;4962540;28;102718;-71
2022/12/06 11:40:36;;;;;;;8.33;7.43;;;;;;;5.61;93.24;98828.56;4949613;28;103479;-70
2022/12/06 11:43:15;;;;;;;8.97;6.87;;;;;;;5.47;94.21;98822.31;4965447;28;103892;-70
2022/12/06 11:45:44;;;;;;;11.80;10.33;;;;;;;5.39;95.04;98813.97;4963934;28;102582;-71
2022/12/06 11:48:15;;;;;;;9.23;7.87;;;;;;;5.47;95.20;98812.69;4971603;28;102891;-69
2022/12/06 11:50:44;;;;;;;6.93;6.13;;;;;;;5.60;95.31;98819.00;4961924;28;103291;-70
2022/12/06 11:53:19;;;;;;;7.73;6.47;;;;;;;5.31;95.94;98827.44;4977768;28;104345;-66
2022/12/06 11:55:52;;;;;;;6.00;5.40;;;;;;;5.19;96.69;98815.78;4980115;28;102939;-68
2022/12/06 11:58:26;;;;;;;5.90;5.33;;;;;;;5.32;96.99;98817.81;4961904;28;104143;-68
2022/12/06 12:01:01;;;;;;;5.10;4.60;;;;;;;5.55;96.08;98826.25;4972190;28;104678;-68
2022/12/06 12:03:31;;;;;;;5.97;4.57;;;;;;;5.35;95.20;98822.91;4972624;28;103249;-69
2022/12/06 12:06:16;;;;;;;4.90;3.97;;;;;;;5.53;95.30;98816.75;4961242;28;102660;-69
2022/12/06 12:09:00;;;;;;;6.73;4.60;;;;;;;5.70;94.26;98820.22;4948203;28;103496;-69
2022/12/06 12:11:30;;;;;;;7.13;4.63;;;;;;;5.44;93.90;98817.22;4951905;28;104124;-68
2022/12/06 12:14:02;;;;;;;5.63;4.63;;;;;;;5.51;94.37;98821.22;4934932;28;103243;-69